createdAt,value
2022-12-15T00:02:17.987Z,14.35
2022-12-15T00:05:03.167Z,15.90
2022-12-15T00:07:48.808Z,14.45
2022-12-15T00:10:34.115Z,14.38
2022-12-15T00:13:19.592Z,15.05
2022-12-15T00:16:08.099Z,16.60
2022-12-15T00:18:53.679Z,15.35
2022-12-15T00:21:38.860Z,14.57
2022-12-15T00:24:24.575Z,16.00
2022-12-15T00:27:10.047Z,15.05
2022-12-15T00:29:55.335Z,16.90
2022-12-15T00:32:41.186Z,16.90
2022-12-15T00:35:26.911Z,16.38
2022-12-15T00:38:12.121Z,15.77
2022-12-15T00:40:38.897Z,17.25
2022-12-15T00:43:05.729Z,17.42
2022-12-15T00:45:51.147Z,17.77
2022-12-15T00:48:17.824Z,20.45
2022-12-15T00:50:53.943Z,18.45
2022-12-15T00:53:41.245Z,19.30
2022-12-15T00:56:27.538Z,17.25
2022-12-15T00:59:13.703Z,17.77
2022-12-15T01:01:59.412Z,16.83
2022-12-15T01:04:45.298Z,17.60
2022-12-15T01:07:30.440Z,18.60
2022-12-15T01:10:15.976Z,17.35
2022-12-15T01:13:01.241Z,16.48
2022-12-15T01:15:46.580Z,16.48
2022-12-15T01:18:31.952Z,18.95
2022-12-15T01:21:04.878Z,18.67
2022-12-15T01:23:32.959Z,16.85
2022-12-15T01:25:59.931Z,17.88
2022-12-15T01:28:26.668Z,18.55
2022-12-15T01:30:53.716Z,17.90
2022-12-15T01:33:21.276Z,16.63
2022-12-15T01:36:01.251Z,18.25
2022-12-15T01:38:29.410Z,17.30
2022-12-15T01:41:00.898Z,16.88
2022-12-15T01:43:33.870Z,16.95
2022-12-15T01:46:12.743Z,19.15
2022-12-15T01:49:03.036Z,17.35
2022-12-15T01:51:35.535Z,17.70
2022-12-15T01:54:20.795Z,17.30
2022-12-15T01:56:54.964Z,16.02
2022-12-15T01:59:27.213Z,17.02
2022-12-15T02:01:54.104Z,18.70
2022-12-15T02:04:23.509Z,18.83
2022-12-15T02:06:50.682Z,18.50
2022-12-15T02:09:19.299Z,17.75
2022-12-15T02:12:04.483Z,21.10
2022-12-15T02:14:45.564Z,19.45
2022-12-15T02:17:25.097Z,17.70
2022-12-15T02:20:26.243Z,19.55
2022-12-15T02:23:29.980Z,19.20
2022-12-15T02:26:17.953Z,18.13
2022-12-15T02:29:03.268Z,19.65
2022-12-15T02:31:50.481Z,19.67
2022-12-15T02:34:35.613Z,20.83
2022-12-15T02:37:06.335Z,18.98
2022-12-15T02:39:33.073Z,18.80
2022-12-15T02:41:59.890Z,18.17
2022-12-15T02:44:40.279Z,20.75
2022-12-15T02:47:06.969Z,22.70
2022-12-15T02:50:09.077Z,20.65
2022-12-15T02:52:55.203Z,19.85
2022-12-15T02:55:33.963Z,19.13
2022-12-15T02:58:12.628Z,19.65
2022-12-15T03:00:45.021Z,20.17
2022-12-15T03:03:20.324Z,19.33
2022-12-15T03:05:55.110Z,20.48
2022-12-15T03:08:22.365Z,18.80
2022-12-15T03:10:52.591Z,20.40
2022-12-15T03:13:19.319Z,21.05
2022-12-15T03:15:46.104Z,21.95
2022-12-15T03:18:12.884Z,20.45
2022-12-15T03:20:39.623Z,20.20
2022-12-15T03:23:07.128Z,20.40
2022-12-15T03:25:33.886Z,19.02
2022-12-15T03:28:00.859Z,19.15
2022-12-15T03:30:27.610Z,20.58
2022-12-15T03:32:54.411Z,20.42
2022-12-15T03:35:21.190Z,18.30
2022-12-15T03:37:47.924Z,18.42
2022-12-15T03:40:16.869Z,18.45
2022-12-15T03:42:49.631Z,19.20
2022-12-15T03:45:25.255Z,18.52
2022-12-15T03:47:52.377Z,20.88
2022-12-15T03:50:25.262Z,19.95
2022-12-15T03:52:58.613Z,19.75
2022-12-15T03:55:26.349Z,19.02
2022-12-15T03:57:53.110Z,19.25
2022-12-15T04:00:21.377Z,19.77
2022-12-15T04:02:50.524Z,17.80
2022-12-15T04:05:27.473Z,17.38
2022-12-15T04:07:55.983Z,18.00
2022-12-15T04:10:27.363Z,22.73
2022-12-15T04:13:06.164Z,20.58
2022-12-15T04:15:34.144Z,17.08
2022-12-15T04:18:03.123Z,18.83
2022-12-15T04:20:30.386Z,18.42
2022-12-15T04:22:57.337Z,19.80
2022-12-15T04:25:44.159Z,19.13
2022-12-15T04:28:30.425Z,23.02
2022-12-15T04:31:39.184Z,20.35
2022-12-15T04:34:31.476Z,18.67
2022-12-15T04:37:16.991Z,21.52
2022-12-15T04:40:11.843Z,20.77
2022-12-15T04:43:01.631Z,18.25
2022-12-15T04:45:47.396Z,18.05
2022-12-15T04:48:33.165Z,18.60
2022-12-15T04:51:18.422Z,21.13
2022-12-15T04:54:04.538Z,18.35
2022-12-15T04:56:50.708Z,20.75
2022-12-15T04:59:36.566Z,16.33
2022-12-15T05:02:21.791Z,17.20
2022-12-15T05:05:07.027Z,17.38
2022-12-15T05:07:52.120Z,20.02
2022-12-15T05:10:37.194Z,18.65
2022-12-15T05:13:24.283Z,17.15
2022-12-15T05:16:09.762Z,18.45
2022-12-15T05:18:55.480Z,15.52
2022-12-15T05:21:40.700Z,18.30
2022-12-15T05:24:25.838Z,18.00
2022-12-15T05:27:11.005Z,20.15
2022-12-15T05:29:56.452Z,18.17
2022-12-15T05:32:23.825Z,19.30
2022-12-15T05:34:50.568Z,18.38
2022-12-15T05:37:17.487Z,17.27
2022-12-15T05:39:44.262Z,20.80
2022-12-15T05:42:11.082Z,16.85
2022-12-15T05:44:37.926Z,19.02
2022-12-15T05:47:04.973Z,16.15
2022-12-15T05:49:31.833Z,19.30
2022-12-15T05:51:58.527Z,17.00
2022-12-15T05:54:25.541Z,17.95
2022-12-15T05:56:52.787Z,19.35
2022-12-15T05:59:19.976Z,18.98
2022-12-15T06:01:47.293Z,18.15
2022-12-15T06:04:14.270Z,19.08
2022-12-15T06:06:41.344Z,20.98
2022-12-15T06:09:08.919Z,19.92
2022-12-15T06:11:35.776Z,19.80
2022-12-15T06:14:02.527Z,21.50
2022-12-15T06:16:29.630Z,19.88
2022-12-15T06:18:59.583Z,23.38
2022-12-15T06:21:29.225Z,20.83
2022-12-15T06:23:57.066Z,22.20
2022-12-15T06:26:38.494Z,21.25
2022-12-15T06:29:08.641Z,20.15
2022-12-15T06:31:37.084Z,22.52
2022-12-15T06:34:05.958Z,22.45
2022-12-15T06:36:32.815Z,22.30
2022-12-15T06:39:01.371Z,22.00
2022-12-15T06:41:32.228Z,20.58
2022-12-15T06:43:59.838Z,21.60
2022-12-15T06:46:28.590Z,23.85
2022-12-15T06:48:55.912Z,22.92
2022-12-15T06:51:22.822Z,23.00
2022-12-15T06:53:50.894Z,24.65
2022-12-15T06:56:19.973Z,24.30
2022-12-15T06:58:50.345Z,22.58
2022-12-15T07:01:18.285Z,21.45
2022-12-15T07:03:45.962Z,22.55
2022-12-15T07:06:16.150Z,24.85
2022-12-15T07:08:44.750Z,23.85
2022-12-15T07:11:13.182Z,23.33
2022-12-15T07:13:40.558Z,22.23
2022-12-15T07:16:08.354Z,22.02
2022-12-15T07:18:35.162Z,21.98
2022-12-15T07:21:07.340Z,20.27
2022-12-15T07:23:53.498Z,19.38
2022-12-15T07:26:21.337Z,20.45
2022-12-15T07:28:48.119Z,21.67
2022-12-15T07:31:15.716Z,21.73
2022-12-15T07:33:43.033Z,20.17
2022-12-15T07:36:11.171Z,22.50
2022-12-15T07:38:38.300Z,18.17
2022-12-15T07:41:07.178Z,20.42
2022-12-15T07:43:35.389Z,18.42
2022-12-15T07:46:03.706Z,21.40
2022-12-15T07:48:30.726Z,19.80
2022-12-15T07:51:05.151Z,18.90
2022-12-15T07:53:36.658Z,20.73
2022-12-15T07:56:09.099Z,23.77
2022-12-15T07:58:37.332Z,23.30
2022-12-15T08:01:06.846Z,21.67
2022-12-15T08:03:47.554Z,20.77
2022-12-15T08:06:15.846Z,19.70
2022-12-15T08:08:44.978Z,19.05
2022-12-15T08:11:19.544Z,19.25
2022-12-15T08:14:03.474Z,17.90
2022-12-15T08:16:33.362Z,18.63
2022-12-15T08:19:00.206Z,20.55
2022-12-15T08:21:27.248Z,20.23
2022-12-15T08:23:54.358Z,16.95
2022-12-15T08:26:25.209Z,18.92
2022-12-15T08:29:11.828Z,18.27
2022-12-15T08:31:44.144Z,19.75
2022-12-15T08:34:11.242Z,17.58
2022-12-15T08:36:39.079Z,21.27
2022-12-15T08:39:05.896Z,18.67
2022-12-15T08:41:33.001Z,20.13
2022-12-15T08:44:01.515Z,18.00
2022-12-15T08:46:37.861Z,17.67
2022-12-15T08:49:04.792Z,17.27
2022-12-15T08:51:32.793Z,17.70
2022-12-15T08:54:00.531Z,19.08
2022-12-15T08:56:28.713Z,17.60
2022-12-15T08:59:00.702Z,17.60
2022-12-15T09:01:29.575Z,18.42
2022-12-15T09:03:57.508Z,16.33
2022-12-15T09:06:28.300Z,18.38
2022-12-15T09:08:59.888Z,17.55
2022-12-15T09:11:28.364Z,18.67
2022-12-15T09:13:55.295Z,18.33
2022-12-15T09:16:22.919Z,18.90
2022-12-15T09:18:52.275Z,17.63
2022-12-15T09:21:23.080Z,21.48
2022-12-15T09:23:51.738Z,17.90
2022-12-15T09:26:20.806Z,20.92
2022-12-15T09:28:50.611Z,20.95
2022-12-15T09:31:29.452Z,17.05
2022-12-15T09:33:58.047Z,17.50
2022-12-15T09:36:25.517Z,20.67
2022-12-15T09:38:52.368Z,18.58
2022-12-15T09:41:27.310Z,18.95
2022-12-15T09:44:13.824Z,19.33
2022-12-15T09:46:59.788Z,18.45
2022-12-15T09:49:58.781Z,19.73
2022-12-15T09:52:39.766Z,19.77
2022-12-15T09:55:21.859Z,19.10
2022-12-15T09:57:55.288Z,18.08
2022-12-15T10:00:50.686Z,17.65
2022-12-15T10:04:06.735Z,20.48
2022-12-15T10:07:01.199Z,16.95
2022-12-15T10:09:30.022Z,18.20
2022-12-15T10:12:02.919Z,18.67
2022-12-15T10:14:42.113Z,19.20
2022-12-15T10:17:25.679Z,19.20
2022-12-15T10:20:01.804Z,21.60
2022-12-15T10:22:34.037Z,19.20
2022-12-15T10:25:31.233Z,24.45
2022-12-15T10:28:06.703Z,20.30
2022-12-15T10:30:35.388Z,20.05
2022-12-15T10:33:14.780Z,22.98
2022-12-15T10:35:43.985Z,21.67
2022-12-15T10:38:40.353Z,20.52
2022-12-15T10:41:12.905Z,21.50
2022-12-15T10:43:42.397Z,26.08
2022-12-15T10:46:09.219Z,23.52
2022-12-15T10:48:37.044Z,24.10
2022-12-15T10:51:37.178Z,23.48
2022-12-15T10:54:10.208Z,23.25
2022-12-15T10:57:09.028Z,24.45
2022-12-15T10:59:38.456Z,23.85
2022-12-15T11:02:23.952Z,26.15
2022-12-15T11:05:17.097Z,24.60
2022-12-15T11:07:52.251Z,26.65
2022-12-15T11:10:48.865Z,23.73
2022-12-15T11:13:25.497Z,23.20
2022-12-15T11:15:56.532Z,20.83
2022-12-15T11:18:32.028Z,24.48
2022-12-15T11:21:11.915Z,25.42
2022-12-15T11:23:57.167Z,24.55
2022-12-15T11:26:42.733Z,25.77
2022-12-15T11:29:37.463Z,24.35
2022-12-15T11:32:07.479Z,24.05
2022-12-15T11:34:41.880Z,24.25
2022-12-15T11:37:08.756Z,25.30
2022-12-15T11:39:59.827Z,23.67
2022-12-15T11:42:48.797Z,27.27
2022-12-15T11:45:25.199Z,24.17
2022-12-15T11:48:04.140Z,22.92
2022-12-15T11:50:50.986Z,23.95
2022-12-15T11:53:54.280Z,27.13
2022-12-15T11:56:43.030Z,22.30
2022-12-15T11:59:18.745Z,21.48
2022-12-15T12:01:53.868Z,22.05
2022-12-15T12:04:54.216Z,22.52
2022-12-15T12:07:41.837Z,22.40
2022-12-15T12:10:24.596Z,24.88
2022-12-15T12:13:09.917Z,24.27
2022-12-15T12:16:02.662Z,27.85
2022-12-15T12:18:36.700Z,30.88
2022-12-15T12:21:12.127Z,28.65
2022-12-15T12:24:19.171Z,26.58
2022-12-15T12:26:52.233Z,28.38
2022-12-15T12:29:30.436Z,27.42
2022-12-15T12:32:04.590Z,25.80
2022-12-15T12:34:37.940Z,25.05
2022-12-15T12:37:21.230Z,26.17
2022-12-15T12:39:49.751Z,25.67
2022-12-15T12:42:29.144Z,25.50
2022-12-15T12:44:56.376Z,25.48
2022-12-15T12:47:31.366Z,25.30
2022-12-15T12:50:06.982Z,26.25
2022-12-15T12:52:37.086Z,25.45
2022-12-15T12:55:14.837Z,25.40
2022-12-15T12:57:43.855Z,26.67
2022-12-15T13:00:18.513Z,27.88
2022-12-15T13:02:50.595Z,25.50
2022-12-15T13:05:29.191Z,30.02
2022-12-15T13:08:08.154Z,27.25
2022-12-15T13:10:37.755Z,25.08
2022-12-15T13:13:29.613Z,27.02
2022-12-15T13:16:17.950Z,26.88
2022-12-15T13:19:14.630Z,25.85
2022-12-15T13:21:41.650Z,33.03
2022-12-15T13:24:34.677Z,26.92
2022-12-15T13:27:10.401Z,25.17
2022-12-15T13:30:09.368Z,28.88
2022-12-15T13:32:44.699Z,25.25
2022-12-15T13:35:12.356Z,25.02
2022-12-15T13:37:52.565Z,29.30
2022-12-15T13:40:50.634Z,24.42
2022-12-15T13:43:27.008Z,27.55
2022-12-15T13:45:59.208Z,25.95
2022-12-15T13:48:42.846Z,25.63
2022-12-15T13:51:31.690Z,23.77
2022-12-15T13:54:23.812Z,25.00
2022-12-15T13:56:53.464Z,24.60
2022-12-15T13:59:30.669Z,23.23
2022-12-15T14:01:57.517Z,24.77
2022-12-15T14:04:24.804Z,22.80
2022-12-15T14:07:01.169Z,22.40
2022-12-15T14:09:38.413Z,26.20
2022-12-15T14:12:08.544Z,22.85
2022-12-15T14:14:42.660Z,23.67
2022-12-15T14:17:16.390Z,25.05
2022-12-15T14:19:51.121Z,22.23
2022-12-15T14:22:21.805Z,26.38
2022-12-15T14:25:03.516Z,23.35
2022-12-15T14:27:33.966Z,25.60
2022-12-15T14:30:10.973Z,22.55
2022-12-15T14:32:38.271Z,24.55
2022-12-15T14:35:05.824Z,22.35
2022-12-15T14:37:33.356Z,24.30
2022-12-15T14:40:00.126Z,25.17
2022-12-15T14:42:29.389Z,23.70
2022-12-15T14:44:58.403Z,22.60
2022-12-15T14:47:34.702Z,25.63
2022-12-15T14:50:03.983Z,26.00
2022-12-15T14:52:30.641Z,25.35
2022-12-15T14:55:00.651Z,25.70
2022-12-15T14:57:39.311Z,27.02
2022-12-15T15:00:28.044Z,22.48
2022-12-15T15:03:20.138Z,24.30
2022-12-15T15:05:57.178Z,23.67
2022-12-15T15:08:26.939Z,26.88
2022-12-15T15:11:02.778Z,25.50
2022-12-15T15:13:39.998Z,26.27
2022-12-15T15:16:14.858Z,24.00
2022-12-15T15:18:42.840Z,25.15
2022-12-15T15:21:17.539Z,25.75
2022-12-15T15:23:58.625Z,24.42
2022-12-15T15:26:26.646Z,26.40
2022-12-15T15:28:54.062Z,24.98
2022-12-15T15:31:40.788Z,21.73
2022-12-15T15:34:08.584Z,26.73
2022-12-15T15:36:38.125Z,25.45
2022-12-15T15:39:20.161Z,24.95
2022-12-15T15:41:46.831Z,23.95
2022-12-15T15:44:15.217Z,26.15
2022-12-15T15:46:52.516Z,25.20
2022-12-15T15:49:21.770Z,28.48
2022-12-15T15:51:49.033Z,22.85
2022-12-15T15:54:21.154Z,22.05
2022-12-15T15:56:47.828Z,27.00
2022-12-15T15:59:21.084Z,24.02
2022-12-15T16:01:54.744Z,20.52
2022-12-15T16:04:22.844Z,26.13
2022-12-15T16:06:51.016Z,20.88
2022-12-15T16:09:17.741Z,24.60
2022-12-15T16:11:46.251Z,24.38
2022-12-15T16:14:16.954Z,22.85
2022-12-15T16:16:44.825Z,29.03
2022-12-15T16:19:14.392Z,25.52
2022-12-15T16:21:42.970Z,26.58
2022-12-15T16:24:19.370Z,23.27
2022-12-15T16:26:49.946Z,26.23
2022-12-15T16:29:19.147Z,22.33
2022-12-15T16:31:46.673Z,26.42
2022-12-15T16:34:16.704Z,22.63
2022-12-15T16:36:44.797Z,23.73
2022-12-15T16:39:23.938Z,27.13
2022-12-15T16:41:52.833Z,26.88
2022-12-15T16:44:19.548Z,22.25
2022-12-15T16:46:46.299Z,24.52
2022-12-15T16:49:13.040Z,23.77
2022-12-15T16:51:45.171Z,28.27
2022-12-15T16:54:25.139Z,23.98
2022-12-15T16:56:53.765Z,24.95
2022-12-15T16:59:33.177Z,30.08
2022-12-15T17:02:01.127Z,27.42
2022-12-15T17:04:27.964Z,26.77
2022-12-15T17:06:55.028Z,25.40
2022-12-15T17:09:23.874Z,24.80
2022-12-15T17:11:52.161Z,26.45
2022-12-15T17:14:19.100Z,24.08
2022-12-15T17:16:45.771Z,25.42
2022-12-15T17:19:17.555Z,25.15
2022-12-15T17:21:53.577Z,28.85
2022-12-15T17:24:22.320Z,25.23
2022-12-15T17:26:49.889Z,26.52
2022-12-15T17:29:25.363Z,32.33
2022-12-15T17:31:53.420Z,26.27
2022-12-15T17:34:33.825Z,25.40
2022-12-15T17:37:04.346Z,26.30
2022-12-15T17:39:33.694Z,27.52
2022-12-15T17:42:01.759Z,29.42
2022-12-15T17:44:37.476Z,26.42
2022-12-15T17:47:07.944Z,27.13
2022-12-15T17:49:37.787Z,25.63
2022-12-15T17:52:12.547Z,29.20
2022-12-15T17:54:39.448Z,23.45
2022-12-15T17:57:06.255Z,27.73
2022-12-15T17:59:36.298Z,25.58
2022-12-15T18:02:03.219Z,23.15
2022-12-15T18:04:30.035Z,27.50
2022-12-15T18:07:01.489Z,24.77
2022-12-15T18:09:29.647Z,28.08
2022-12-15T18:11:56.654Z,28.30
2022-12-15T18:14:23.423Z,23.80
2022-12-15T18:16:50.201Z,24.00
2022-12-15T18:19:17.018Z,30.10
2022-12-15T18:21:44.229Z,23.35
2022-12-15T18:24:15.488Z,23.60
2022-12-15T18:26:42.508Z,21.15
2022-12-15T18:29:20.436Z,26.27
2022-12-15T18:31:49.309Z,22.25
2022-12-15T18:34:21.314Z,25.85
2022-12-15T18:36:48.836Z,25.35
2022-12-15T18:39:24.022Z,24.30
2022-12-15T18:41:54.809Z,22.48
2022-12-15T18:44:26.821Z,22.48
2022-12-15T18:49:23.789Z,26.73
2022-12-15T18:51:51.038Z,23.77
2022-12-15T18:54:24.224Z,25.75
2022-12-15T18:56:51.654Z,28.17
2022-12-15T18:59:18.726Z,27.05
2022-12-15T19:01:47.222Z,28.42
2022-12-15T19:04:14.950Z,24.23
2022-12-15T19:06:42.471Z,29.98
2022-12-15T19:09:17.783Z,29.95
2022-12-15T19:12:07.694Z,21.33
2022-12-15T19:14:40.564Z,29.63
2022-12-15T19:17:30.492Z,26.88
2022-12-15T19:20:15.745Z,27.30
2022-12-15T19:22:44.360Z,27.85
2022-12-15T19:25:25.031Z,28.38
2022-12-15T19:27:58.722Z,30.52
2022-12-15T19:30:39.925Z,28.85
2022-12-15T19:33:09.287Z,27.33
2022-12-15T19:35:36.692Z,31.00
2022-12-15T19:38:04.134Z,29.92
2022-12-15T19:40:33.016Z,28.58
2022-12-15T19:43:00.969Z,28.77
2022-12-15T19:45:32.642Z,32.33
2022-12-15T19:50:33.395Z,36.80
2022-12-15T19:53:02.215Z,31.42
2022-12-15T19:55:34.851Z,32.72
2022-12-15T19:58:23.702Z,29.85
2022-12-15T20:04:04.013Z,34.67
2022-12-15T20:06:31.910Z,27.27
2022-12-15T20:09:07.229Z,34.08
2022-12-15T20:11:51.290Z,29.30
2022-12-15T20:14:46.577Z,33.72
2022-12-15T20:17:24.424Z,34.97
2022-12-15T20:20:20.928Z,31.55
2022-12-15T20:23:12.982Z,36.03
2022-12-15T20:26:31.946Z,34.45
2022-12-15T20:33:02.144Z,31.88
2022-12-15T20:36:13.088Z,35.40
2022-12-15T21:07:01.147Z,38.30
2022-12-15T21:12:18.291Z,30.95
2022-12-15T21:14:45.243Z,32.50
2022-12-15T21:17:17.142Z,35.58
2022-12-15T21:19:44.325Z,33.53
2022-12-15T21:22:25.118Z,37.28
2022-12-15T21:24:54.909Z,38.15
2022-12-15T21:27:22.036Z,35.90
2022-12-15T21:29:52.627Z,37.63
2022-12-15T21:32:20.468Z,34.65
2022-12-15T21:34:47.124Z,39.08
2022-12-15T21:37:26.926Z,34.35
2022-12-15T21:39:54.428Z,35.35
2022-12-15T21:42:21.787Z,37.13
2022-12-15T21:44:48.710Z,35.20
2022-12-15T21:47:49.760Z,34.90
2022-12-15T21:50:19.455Z,38.35
2022-12-15T21:52:47.259Z,33.10
2022-12-15T21:55:28.746Z,35.70
2022-12-15T21:57:57.385Z,31.15
2022-12-15T22:00:24.983Z,33.95
2022-12-15T22:02:53.755Z,31.80
2022-12-15T22:05:25.920Z,27.80
2022-12-15T22:07:52.706Z,33.00
2022-12-15T22:10:19.670Z,33.67
2022-12-15T22:12:59.116Z,32.28
2022-12-15T22:15:26.326Z,30.95
2022-12-15T22:17:53.127Z,30.48
2022-12-15T22:20:22.998Z,30.15
2022-12-15T22:22:49.921Z,32.58
2022-12-15T22:25:20.784Z,31.80
2022-12-15T22:27:48.371Z,31.57
2022-12-15T22:30:26.146Z,31.00
2022-12-15T22:32:52.908Z,29.02
2022-12-15T22:35:23.243Z,29.02
2022-12-15T22:37:53.467Z,32.38
2022-12-15T22:40:21.104Z,28.92
2022-12-15T22:42:52.477Z,30.02
2022-12-15T22:45:24.064Z,32.00
2022-12-15T22:47:52.426Z,28.77
2022-12-15T22:50:25.109Z,31.55
2022-12-15T22:52:52.255Z,29.90
2022-12-15T22:55:20.557Z,31.25
2022-12-15T22:57:58.130Z,32.30
2022-12-15T23:00:25.027Z,30.35
2022-12-15T23:02:52.259Z,32.15
2022-12-15T23:05:20.315Z,30.23
2022-12-15T23:07:47.175Z,29.15
2022-12-15T23:10:34.732Z,33.03
2022-12-15T23:13:01.531Z,27.33
2022-12-15T23:15:47.627Z,32.00
2022-12-15T23:18:14.811Z,28.23
2022-12-15T23:20:41.874Z,30.48
2022-12-15T23:23:09.909Z,27.77
2022-12-15T23:25:36.671Z,33.47
2022-12-15T23:28:03.670Z,30.00
2022-12-15T23:30:30.372Z,31.65
2022-12-15T23:32:57.070Z,29.50
2022-12-15T23:35:23.821Z,28.10
2022-12-15T23:37:50.976Z,31.10
2022-12-15T23:40:22.253Z,29.98
2022-12-15T23:42:49.935Z,28.08
2022-12-15T23:45:18.339Z,27.45
2022-12-15T23:47:45.279Z,28.98
2022-12-15T23:50:12.119Z,27.85
2022-12-15T23:52:38.935Z,28.50
2022-12-15T23:55:10.053Z,27.45
2022-12-15T23:57:38.205Z,28.27
